sensor_id;sensor_type;location;lat;lon;timestamp;temperature;humidity
23251;DHT22;11794;49.730;10.088;2023-02-15T00:01:20;1.10;99.90
23251;DHT22;11794;49.730;10.088;2023-02-15T00:03:48;1.10;99.90
23251;DHT22;11794;49.730;10.088;2023-02-15T00:06:14;1.10;99.90
23251;DHT22;11794;49.730;10.088;2023-02-15T00:08:40;1.10;99.90
23251;DHT22;11794;49.730;10.088;2023-02-15T00:11:07;1.10;99.90
23251;DHT22;11794;49.730;10.088;2023-02-15T00:13:33;1.00;99.90
23251;DHT22;11794;49.730;10.088;2023-02-15T00:16:05;1.00;99.90
23251;DHT22;11794;49.730;10.088;2023-02-15T00:18:31;1.00;99.90
23251;DHT22;11794;49.730;10.088;2023-02-15T00:20:57;1.10;99.90
23251;DHT22;11794;49.730;10.088;2023-02-15T00:23:22;1.00;99.90
23251;DHT22;11794;49.730;10.088;2023-02-15T00:25:48;0.90;99.90
23251;DHT22;11794;49.730;10.088;2023-02-15T00:28:14;1.10;99.90
23251;DHT22;11794;49.730;10.088;2023-02-15T00:30:39;1.10;99.90
23251;DHT22;11794;49.730;10.088;2023-02-15T00:33:05;1.20;99.90
23251;DHT22;11794;49.730;10.088;2023-02-15T00:35:30;1.20;99.90
23251;DHT22;11794;49.730;10.088;2023-02-15T00:37:56;1.20;99.90
23251;DHT22;11794;49.730;10.088;2023-02-15T00:40:21;1.20;99.90
23251;DHT22;11794;49.730;10.088;2023-02-15T00:42:47;1.10;99.90
23251;DHT22;11794;49.730;10.088;2023-02-15T00:45:12;1.10;99.90
23251;DHT22;11794;49.730;10.088;2023-02-15T00:47:38;0.90;99.90
23251;DHT22;11794;49.730;10.088;2023-02-15T00:50:04;0.90;99.90
23251;DHT22;11794;49.730;10.088;2023-02-15T00:52:30;0.90;99.90
23251;DHT22;11794;49.730;10.088;2023-02-15T00:54:56;0.80;99.90
23251;DHT22;11794;49.730;10.088;2023-02-15T00:57:21;0.90;99.90
23251;DHT22;11794;49.730;10.088;2023-02-15T00:59:47;0.90;99.90
23251;DHT22;11794;49.730;10.088;2023-02-15T01:02:12;1.00;99.90
23251;DHT22;11794;49.730;10.088;2023-02-15T01:04:38;1.10;99.90
23251;DHT22;11794;49.730;10.088;2023-02-15T01:07:04;1.10;99.90
23251;DHT22;11794;49.730;10.088;2023-02-15T01:09:29;1.00;99.90
23251;DHT22;11794;49.730;10.088;2023-02-15T01:11:55;0.90;99.90
23251;DHT22;11794;49.730;10.088;2023-02-15T01:14:20;0.90;99.90
23251;DHT22;11794;49.730;10.088;2023-02-15T01:16:46;0.70;99.90
23251;DHT22;11794;49.730;10.088;2023-02-15T01:19:12;0.70;99.90
23251;DHT22;11794;49.730;10.088;2023-02-15T01:21:38;0.70;99.90
23251;DHT22;11794;49.730;10.088;2023-02-15T01:24:13;0.70;99.90
23251;DHT22;11794;49.730;10.088;2023-02-15T01:26:39;0.70;99.90
23251;DHT22;11794;49.730;10.088;2023-02-15T01:29:05;0.70;99.90
23251;DHT22;11794;49.730;10.088;2023-02-15T01:31:31;0.70;99.90
23251;DHT22;11794;49.730;10.088;2023-02-15T01:33:56;0.60;99.90
23251;DHT22;11794;49.730;10.088;2023-02-15T01:36:22;0.60;99.90
23251;DHT22;11794;49.730;10.088;2023-02-15T01:38:47;0.60;99.90
23251;DHT22;11794;49.730;10.088;2023-02-15T01:41:13;0.70;99.90
23251;DHT22;11794;49.730;10.088;2023-02-15T01:46:22;0.70;99.90
23251;DHT22;11794;49.730;10.088;2023-02-15T01:48:52;0.70;99.90
23251;DHT22;11794;49.730;10.088;2023-02-15T01:51:22;0.60;99.90
23251;DHT22;11794;49.730;10.088;2023-02-15T01:53:55;0.50;99.90
23251;DHT22;11794;49.730;10.088;2023-02-15T01:56:35;0.50;99.90
23251;DHT22;11794;49.730;10.088;2023-02-15T01:59:09;0.60;99.90
23251;DHT22;11794;49.730;10.088;2023-02-15T02:01:37;0.60;99.90
23251;DHT22;11794;49.730;10.088;2023-02-15T02:04:21;0.60;99.90
23251;DHT22;11794;49.730;10.088;2023-02-15T02:06:50;0.70;99.90
23251;DHT22;11794;49.730;10.088;2023-02-15T02:09:16;0.50;99.90
23251;DHT22;11794;49.730;10.088;2023-02-15T02:11:44;0.40;99.90
23251;DHT22;11794;49.730;10.088;2023-02-15T02:14:11;0.40;99.90
23251;DHT22;11794;49.730;10.088;2023-02-15T02:31:02;0.40;99.90
23251;DHT22;11794;49.730;10.088;2023-02-15T02:36:48;0.30;99.90
23251;DHT22;11794;49.730;10.088;2023-02-15T02:39:33;0.40;99.90
23251;DHT22;11794;49.730;10.088;2023-02-15T02:44:42;0.60;99.90
23251;DHT22;11794;49.730;10.088;2023-02-15T02:47:16;0.60;99.90
23251;DHT22;11794;49.730;10.088;2023-02-15T02:49:44;0.60;99.90
23251;DHT22;11794;49.730;10.088;2023-02-15T02:52:36;0.60;99.90
23251;DHT22;11794;49.730;10.088;2023-02-15T02:55:30;0.50;99.90
23251;DHT22;11794;49.730;10.088;2023-02-15T02:58:04;0.60;99.90
23251;DHT22;11794;49.730;10.088;2023-02-15T03:00:38;0.60;99.90
23251;DHT22;11794;49.730;10.088;2023-02-15T03:03:18;0.60;99.90
23251;DHT22;11794;49.730;10.088;2023-02-15T03:05:47;0.50;99.90
23251;DHT22;11794;49.730;10.088;2023-02-15T03:08:16;0.30;99.90
23251;DHT22;11794;49.730;10.088;2023-02-15T03:10:48;0.40;99.90
23251;DHT22;11794;49.730;10.088;2023-02-15T03:13:14;0.30;99.90
23251;DHT22;11794;49.730;10.088;2023-02-15T03:15:41;0.30;99.90
23251;DHT22;11794;49.730;10.088;2023-02-15T03:18:31;0.30;99.90
23251;DHT22;11794;49.730;10.088;2023-02-15T03:21:00;0.30;99.90
23251;DHT22;11794;49.730;10.088;2023-02-15T03:23:28;0.30;99.90
23251;DHT22;11794;49.730;10.088;2023-02-15T03:25:59;0.30;99.90
23251;DHT22;11794;49.730;10.088;2023-02-15T03:28:29;0.20;99.90
23251;DHT22;11794;49.730;10.088;2023-02-15T03:31:01;0.30;99.90
23251;DHT22;11794;49.730;10.088;2023-02-15T03:33:28;0.40;99.90
23251;DHT22;11794;49.730;10.088;2023-02-15T03:36:03;0.40;99.90
23251;DHT22;11794;49.730;10.088;2023-02-15T03:38:35;0.50;99.90
23251;DHT22;11794;49.730;10.088;2023-02-15T03:41:02;0.60;99.90
23251;DHT22;11794;49.730;10.088;2023-02-15T03:43:37;0.50;99.90
23251;DHT22;11794;49.730;10.088;2023-02-15T03:46:11;0.20;99.90
23251;DHT22;11794;49.730;10.088;2023-02-15T03:48:40;0.10;99.90
23251;DHT22;11794;49.730;10.088;2023-02-15T03:51:20;0.10;99.90
23251;DHT22;11794;49.730;10.088;2023-02-15T03:54:04;0.10;99.90
23251;DHT22;11794;49.730;10.088;2023-02-15T03:56:30;0.10;99.90
23251;DHT22;11794;49.730;10.088;2023-02-15T03:58:56;0.00;99.90
23251;DHT22;11794;49.730;10.088;2023-02-15T04:01:57;0.00;99.90
23251;DHT22;11794;49.730;10.088;2023-02-15T04:04:33;-0.10;99.90
23251;DHT22;11794;49.730;10.088;2023-02-15T04:07:00;-0.10;99.90
23251;DHT22;11794;49.730;10.088;2023-02-15T04:09:25;-0.10;99.90
23251;DHT22;11794;49.730;10.088;2023-02-15T04:12:10;-0.10;99.90
23251;DHT22;11794;49.730;10.088;2023-02-15T04:14:35;-0.10;99.90
23251;DHT22;11794;49.730;10.088;2023-02-15T04:17:19;-0.10;99.90
23251;DHT22;11794;49.730;10.088;2023-02-15T04:19:45;-0.10;99.90
23251;DHT22;11794;49.730;10.088;2023-02-15T04:22:29;-0.10;99.90
23251;DHT22;11794;49.730;10.088;2023-02-15T04:25:13;-0.10;99.90
23251;DHT22;11794;49.730;10.088;2023-02-15T04:27:44;-0.10;99.90
23251;DHT22;11794;49.730;10.088;2023-02-15T04:30:12;-0.10;99.90
23251;DHT22;11794;49.730;10.088;2023-02-15T04:32:38;-0.20;99.90
23251;DHT22;11794;49.730;10.088;2023-02-15T04:35:05;-0.20;99.90
23251;DHT22;11794;49.730;10.088;2023-02-15T04:37:31;-0.20;99.90
23251;DHT22;11794;49.730;10.088;2023-02-15T04:39:57;-0.30;99.90
23251;DHT22;11794;49.730;10.088;2023-02-15T04:42:26;-0.30;99.90
23251;DHT22;11794;49.730;10.088;2023-02-15T04:44:52;-0.30;99.90
23251;DHT22;11794;49.730;10.088;2023-02-15T04:47:17;-0.30;99.90
23251;DHT22;11794;49.730;10.088;2023-02-15T04:49:43;-0.30;99.90
23251;DHT22;11794;49.730;10.088;2023-02-15T04:52:08;-0.40;99.90
23251;DHT22;11794;49.730;10.088;2023-02-15T04:54:34;-0.50;99.90
23251;DHT22;11794;49.730;10.088;2023-02-15T04:57:00;-0.50;99.90
23251;DHT22;11794;49.730;10.088;2023-02-15T04:59:26;-0.40;99.90
23251;DHT22;11794;49.730;10.088;2023-02-15T05:01:51;-0.30;99.90
23251;DHT22;11794;49.730;10.088;2023-02-15T05:04:17;-0.20;99.90
23251;DHT22;11794;49.730;10.088;2023-02-15T05:06:42;-0.20;99.90
23251;DHT22;11794;49.730;10.088;2023-02-15T05:09:08;-0.30;99.90
23251;DHT22;11794;49.730;10.088;2023-02-15T05:11:33;-0.20;99.90
23251;DHT22;11794;49.730;10.088;2023-02-15T05:13:59;-0.10;99.90
23251;DHT22;11794;49.730;10.088;2023-02-15T05:16:24;-0.10;99.90
23251;DHT22;11794;49.730;10.088;2023-02-15T05:18:52;-0.10;99.90
23251;DHT22;11794;49.730;10.088;2023-02-15T05:21:18;-0.20;99.90
23251;DHT22;11794;49.730;10.088;2023-02-15T05:23:43;-0.30;99.90
23251;DHT22;11794;49.730;10.088;2023-02-15T05:26:12;-0.30;99.90
23251;DHT22;11794;49.730;10.088;2023-02-15T05:28:56;-0.30;99.90
23251;DHT22;11794;49.730;10.088;2023-02-15T05:31:21;-0.30;99.90
23251;DHT22;11794;49.730;10.088;2023-02-15T05:33:47;-0.40;99.90
23251;DHT22;11794;49.730;10.088;2023-02-15T05:36:13;-0.50;99.90
23251;DHT22;11794;49.730;10.088;2023-02-15T05:38:39;-0.40;99.90
23251;DHT22;11794;49.730;10.088;2023-02-15T05:41:05;-0.40;99.90
23251;DHT22;11794;49.730;10.088;2023-02-15T05:43:32;-0.30;99.90
23251;DHT22;11794;49.730;10.088;2023-02-15T05:45:57;-0.20;99.90
23251;DHT22;11794;49.730;10.088;2023-02-15T05:48:24;-0.30;99.90
23251;DHT22;11794;49.730;10.088;2023-02-15T05:51:02;-0.30;99.90
23251;DHT22;11794;49.730;10.088;2023-02-15T05:53:30;-0.30;99.90
23251;DHT22;11794;49.730;10.088;2023-02-15T05:55:56;-0.50;99.90
23251;DHT22;11794;49.730;10.088;2023-02-15T05:58:29;-0.40;99.90
23251;DHT22;11794;49.730;10.088;2023-02-15T06:00:55;-0.30;99.90
23251;DHT22;11794;49.730;10.088;2023-02-15T06:03:22;-0.30;99.90
23251;DHT22;11794;49.730;10.088;2023-02-15T06:05:47;-0.40;99.90
23251;DHT22;11794;49.730;10.088;2023-02-15T06:08:13;-0.30;99.90
23251;DHT22;11794;49.730;10.088;2023-02-15T06:10:39;-0.40;99.90
23251;DHT22;11794;49.730;10.088;2023-02-15T06:13:05;-0.40;99.90
23251;DHT22;11794;49.730;10.088;2023-02-15T06:15:31;-0.60;99.90
23251;DHT22;11794;49.730;10.088;2023-02-15T06:17:56;-0.60;99.90
23251;DHT22;11794;49.730;10.088;2023-02-15T06:20:22;-0.50;99.90
23251;DHT22;11794;49.730;10.088;2023-02-15T06:22:47;-0.60;99.90
23251;DHT22;11794;49.730;10.088;2023-02-15T06:25:13;-0.50;99.90
23251;DHT22;11794;49.730;10.088;2023-02-15T06:27:41;-0.70;99.90
23251;DHT22;11794;49.730;10.088;2023-02-15T06:30:09;-0.60;99.90
23251;DHT22;11794;49.730;10.088;2023-02-15T06:32:34;-0.60;99.90
23251;DHT22;11794;49.730;10.088;2023-02-15T06:35:00;-0.70;99.90
23251;DHT22;11794;49.730;10.088;2023-02-15T06:37:26;-0.60;99.90
23251;DHT22;11794;49.730;10.088;2023-02-15T06:39:51;-0.60;99.90
23251;DHT22;11794;49.730;10.088;2023-02-15T06:42:17;-0.60;99.90
23251;DHT22;11794;49.730;10.088;2023-02-15T06:44:43;-0.60;99.90
23251;DHT22;11794;49.730;10.088;2023-02-15T06:47:09;-0.50;99.90
23251;DHT22;11794;49.730;10.088;2023-02-15T06:49:35;-0.50;99.90
23251;DHT22;11794;49.730;10.088;2023-02-15T06:52:01;-0.40;99.90
23251;DHT22;11794;49.730;10.088;2023-02-15T06:54:27;-0.50;99.90
23251;DHT22;11794;49.730;10.088;2023-02-15T06:56:52;-0.60;99.90
23251;DHT22;11794;49.730;10.088;2023-02-15T06:59:17;-0.50;99.90
23251;DHT22;11794;49.730;10.088;2023-02-15T07:01:43;-0.40;99.90
23251;DHT22;11794;49.730;10.088;2023-02-15T07:04:09;-0.40;99.90
23251;DHT22;11794;49.730;10.088;2023-02-15T07:06:35;-0.20;99.90
23251;DHT22;11794;49.730;10.088;2023-02-15T07:09:01;-0.20;99.90
23251;DHT22;11794;49.730;10.088;2023-02-15T07:11:26;-0.30;99.90
23251;DHT22;11794;49.730;10.088;2023-02-15T07:14:11;-0.40;99.90
23251;DHT22;11794;49.730;10.088;2023-02-15T07:16:36;-0.40;99.90
23251;DHT22;11794;49.730;10.088;2023-02-15T07:19:02;-0.40;99.90
23251;DHT22;11794;49.730;10.088;2023-02-15T07:21:27;-0.40;99.90
23251;DHT22;11794;49.730;10.088;2023-02-15T07:23:56;-0.50;99.90
23251;DHT22;11794;49.730;10.088;2023-02-15T07:26:21;-0.50;99.90
23251;DHT22;11794;49.730;10.088;2023-02-15T07:28:47;-0.60;99.90
23251;DHT22;11794;49.730;10.088;2023-02-15T07:31:12;-0.60;99.90
23251;DHT22;11794;49.730;10.088;2023-02-15T07:33:38;-0.50;99.90
23251;DHT22;11794;49.730;10.088;2023-02-15T07:36:04;-0.30;99.90
23251;DHT22;11794;49.730;10.088;2023-02-15T07:38:33;-0.20;99.90
23251;DHT22;11794;49.730;10.088;2023-02-15T07:41:00;-0.10;99.90
23251;DHT22;11794;49.730;10.088;2023-02-15T07:43:26;-0.20;99.90
23251;DHT22;11794;49.730;10.088;2023-02-15T07:45:52;-0.10;99.90
23251;DHT22;11794;49.730;10.088;2023-02-15T07:48:17;0.00;99.90
23251;DHT22;11794;49.730;10.088;2023-02-15T07:50:43;0.10;99.90
23251;DHT22;11794;49.730;10.088;2023-02-15T07:53:08;0.10;99.90
23251;DHT22;11794;49.730;10.088;2023-02-15T07:55:34;0.10;99.90
23251;DHT22;11794;49.730;10.088;2023-02-15T07:58:00;0.20;99.90
23251;DHT22;11794;49.730;10.088;2023-02-15T08:00:26;0.00;99.90
23251;DHT22;11794;49.730;10.088;2023-02-15T08:02:53;-0.20;99.90
23251;DHT22;11794;49.730;10.088;2023-02-15T08:05:39;-0.40;99.90
23251;DHT22;11794;49.730;10.088;2023-02-15T08:08:06;-0.30;99.90
23251;DHT22;11794;49.730;10.088;2023-02-15T08:10:32;-0.20;99.90
23251;DHT22;11794;49.730;10.088;2023-02-15T08:13:16;-0.20;99.90
23251;DHT22;11794;49.730;10.088;2023-02-15T08:15:49;0.10;99.90
23251;DHT22;11794;49.730;10.088;2023-02-15T08:18:14;0.10;99.90
23251;DHT22;11794;49.730;10.088;2023-02-15T08:20:40;0.20;99.90
23251;DHT22;11794;49.730;10.088;2023-02-15T08:23:05;0.20;99.90
23251;DHT22;11794;49.730;10.088;2023-02-15T08:25:31;0.10;99.90
23251;DHT22;11794;49.730;10.088;2023-02-15T08:27:56;0.10;99.90
23251;DHT22;11794;49.730;10.088;2023-02-15T08:30:22;0.10;99.90
23251;DHT22;11794;49.730;10.088;2023-02-15T08:32:47;-0.10;99.90
23251;DHT22;11794;49.730;10.088;2023-02-15T08:35:13;-0.30;99.90
23251;DHT22;11794;49.730;10.088;2023-02-15T08:37:38;-0.20;99.90
23251;DHT22;11794;49.730;10.088;2023-02-15T08:40:04;0.00;99.90
23251;DHT22;11794;49.730;10.088;2023-02-15T08:42:32;-0.10;99.90
23251;DHT22;11794;49.730;10.088;2023-02-15T08:44:58;-0.10;99.90
23251;DHT22;11794;49.730;10.088;2023-02-15T08:47:23;-0.30;99.90
23251;DHT22;11794;49.730;10.088;2023-02-15T08:49:49;-0.30;99.90
23251;DHT22;11794;49.730;10.088;2023-02-15T08:52:16;-0.30;99.90
23251;DHT22;11794;49.730;10.088;2023-02-15T08:54:42;-0.20;99.90
23251;DHT22;11794;49.730;10.088;2023-02-15T08:57:07;-0.10;99.90
23251;DHT22;11794;49.730;10.088;2023-02-15T08:59:33;0.00;99.90
23251;DHT22;11794;49.730;10.088;2023-02-15T09:01:58;0.00;99.90
23251;DHT22;11794;49.730;10.088;2023-02-15T09:04:24;-0.10;99.90
23251;DHT22;11794;49.730;10.088;2023-02-15T09:06:50;-0.10;99.90
23251;DHT22;11794;49.730;10.088;2023-02-15T09:09:17;0.00;99.90
23251;DHT22;11794;49.730;10.088;2023-02-15T09:11:44;0.10;99.90
23251;DHT22;11794;49.730;10.088;2023-02-15T09:14:13;0.20;99.90
23251;DHT22;11794;49.730;10.088;2023-02-15T09:16:40;0.10;99.90
23251;DHT22;11794;49.730;10.088;2023-02-15T09:19:06;-0.10;99.90
23251;DHT22;11794;49.730;10.088;2023-02-15T09:21:35;0.10;99.90
23251;DHT22;11794;49.730;10.088;2023-02-15T09:24:04;0.20;99.90
23251;DHT22;11794;49.730;10.088;2023-02-15T09:26:31;0.30;99.90
23251;DHT22;11794;49.730;10.088;2023-02-15T09:28:59;0.20;99.90
23251;DHT22;11794;49.730;10.088;2023-02-15T09:31:28;0.10;99.90
23251;DHT22;11794;49.730;10.088;2023-02-15T09:33:54;0.10;99.90
23251;DHT22;11794;49.730;10.088;2023-02-15T09:36:21;0.30;99.90
23251;DHT22;11794;49.730;10.088;2023-02-15T09:38:52;0.40;99.90
23251;DHT22;11794;49.730;10.088;2023-02-15T09:44:32;0.50;99.90
23251;DHT22;11794;49.730;10.088;2023-02-15T09:50:06;0.30;99.90
23251;DHT22;11794;49.730;10.088;2023-02-15T09:55:24;0.60;99.90
23251;DHT22;11794;49.730;10.088;2023-02-15T09:58:33;0.70;99.90
23251;DHT22;11794;49.730;10.088;2023-02-15T10:01:13;0.90;99.90
23251;DHT22;11794;49.730;10.088;2023-02-15T10:09:38;0.70;99.90
23251;DHT22;11794;49.730;10.088;2023-02-15T10:20:44;0.80;99.90
23251;DHT22;11794;49.730;10.088;2023-02-15T10:23:38;0.80;99.90
23251;DHT22;11794;49.730;10.088;2023-02-15T10:29:03;0.80;99.90
23251;DHT22;11794;49.730;10.088;2023-02-15T10:31:57;0.80;99.90
23251;DHT22;11794;49.730;10.088;2023-02-15T10:34:39;1.00;99.90
23251;DHT22;11794;49.730;10.088;2023-02-15T10:40:14;1.00;99.90
23251;DHT22;11794;49.730;10.088;2023-02-15T10:45:39;1.00;99.90
23251;DHT22;11794;49.730;10.088;2023-02-15T10:50:45;0.70;99.90
23251;DHT22;11794;49.730;10.088;2023-02-15T11:07:40;1.30;99.90
23251;DHT22;11794;49.730;10.088;2023-02-15T11:10:23;1.50;99.90
23251;DHT22;11794;49.730;10.088;2023-02-15T11:12:50;1.70;99.90
23251;DHT22;11794;49.730;10.088;2023-02-15T11:15:34;1.70;99.90
23251;DHT22;11794;49.730;10.088;2023-02-15T11:18:33;1.80;99.90
23251;DHT22;11794;49.730;10.088;2023-02-15T11:23:28;1.70;99.90
23251;DHT22;11794;49.730;10.088;2023-02-15T11:25:59;1.60;99.90
23251;DHT22;11794;49.730;10.088;2023-02-15T11:28:36;1.70;99.90
23251;DHT22;11794;49.730;10.088;2023-02-15T11:31:16;1.80;99.90
23251;DHT22;11794;49.730;10.088;2023-02-15T11:33:46;2.00;99.90
23251;DHT22;11794;49.730;10.088;2023-02-15T11:36:19;2.00;99.90
23251;DHT22;11794;49.730;10.088;2023-02-15T11:38:49;2.10;99.90
23251;DHT22;11794;49.730;10.088;2023-02-15T11:41:19;2.20;99.90
23251;DHT22;11794;49.730;10.088;2023-02-15T11:43:52;2.30;99.90
23251;DHT22;11794;49.730;10.088;2023-02-15T11:46:18;2.10;99.90
23251;DHT22;11794;49.730;10.088;2023-02-15T11:48:45;2.20;99.90
23251;DHT22;11794;49.730;10.088;2023-02-15T11:51:16;2.50;99.90
23251;DHT22;11794;49.730;10.088;2023-02-15T11:53:43;2.50;99.90
23251;DHT22;11794;49.730;10.088;2023-02-15T11:56:18;2.50;99.90
23251;DHT22;11794;49.730;10.088;2023-02-15T11:59:04;2.60;99.90
23251;DHT22;11794;49.730;10.088;2023-02-15T12:01:41;2.30;99.90
23251;DHT22;11794;49.730;10.088;2023-02-15T12:04:26;2.30;99.90
23251;DHT22;11794;49.730;10.088;2023-02-15T12:12:42;2.40;99.90
23251;DHT22;11794;49.730;10.088;2023-02-15T12:15:10;2.40;99.90
23251;DHT22;11794;49.730;10.088;2023-02-15T12:17:39;2.50;99.90
23251;DHT22;11794;49.730;10.088;2023-02-15T12:20:33;2.70;99.90
23251;DHT22;11794;49.730;10.088;2023-02-15T12:23:01;2.80;99.90
23251;DHT22;11794;49.730;10.088;2023-02-15T12:25:51;2.90;99.90
23251;DHT22;11794;49.730;10.088;2023-02-15T12:31:01;3.00;99.90
23251;DHT22;11794;49.730;10.088;2023-02-15T12:33:41;3.10;99.90
23251;DHT22;11794;49.730;10.088;2023-02-15T12:36:21;3.10;99.90
23251;DHT22;11794;49.730;10.088;2023-02-15T12:41:45;3.30;99.90
23251;DHT22;11794;49.730;10.088;2023-02-15T12:44:20;3.40;99.90
23251;DHT22;11794;49.730;10.088;2023-02-15T12:49:37;3.50;99.90
23251;DHT22;11794;49.730;10.088;2023-02-15T12:54:47;3.50;99.90
23251;DHT22;11794;49.730;10.088;2023-02-15T13:00:23;3.80;99.90
23251;DHT22;11794;49.730;10.088;2023-02-15T13:02:52;3.90;99.90
23251;DHT22;11794;49.730;10.088;2023-02-15T13:05:39;4.20;99.90
23251;DHT22;11794;49.730;10.088;2023-02-15T13:08:12;4.30;99.90
23251;DHT22;11794;49.730;10.088;2023-02-15T13:11:07;4.10;99.90
23251;DHT22;11794;49.730;10.088;2023-02-15T13:14:36;4.00;99.90
23251;DHT22;11794;49.730;10.088;2023-02-15T13:16:34;3.90;99.90
23251;DHT22;11794;49.730;10.088;2023-02-15T13:21:40;4.40;99.90
23251;DHT22;11794;49.730;10.088;2023-02-15T13:24:33;4.80;99.90
23251;DHT22;11794;49.730;10.088;2023-02-15T13:27:01;5.40;99.90
23251;DHT22;11794;49.730;10.088;2023-02-15T13:29:33;6.00;99.90
23251;DHT22;11794;49.730;10.088;2023-02-15T13:32:28;6.40;99.90
23251;DHT22;11794;49.730;10.088;2023-02-15T13:34:58;6.80;99.90
23251;DHT22;11794;49.730;10.088;2023-02-15T13:37:34;7.10;99.90
23251;DHT22;11794;49.730;10.088;2023-02-15T13:40:52;7.40;99.90
23251;DHT22;11794;49.730;10.088;2023-02-15T13:42:58;7.80;99.90
23251;DHT22;11794;49.730;10.088;2023-02-15T13:48:29;10.40;99.90
23251;DHT22;11794;49.730;10.088;2023-02-15T13:59:12;10.80;99.90
23251;DHT22;11794;49.730;10.088;2023-02-15T14:01:49;11.30;99.90
23251;DHT22;11794;49.730;10.088;2023-02-15T14:07:04;12.70;99.90
23251;DHT22;11794;49.730;10.088;2023-02-15T14:12:20;12.30;99.90
23251;DHT22;11794;49.730;10.088;2023-02-15T14:18:10;11.60;99.90
23251;DHT22;11794;49.730;10.088;2023-02-15T14:26:04;13.10;99.90
23251;DHT22;11794;49.730;10.088;2023-02-15T14:28:34;13.80;99.90
23251;DHT22;11794;49.730;10.088;2023-02-15T14:31:02;13.80;99.90
23251;DHT22;11794;49.730;10.088;2023-02-15T14:33:33;13.60;99.90
23251;DHT22;11794;49.730;10.088;2023-02-15T14:36:01;13.30;99.90
23251;DHT22;11794;49.730;10.088;2023-02-15T14:38:59;13.10;99.90
23251;DHT22;11794;49.730;10.088;2023-02-15T14:41:51;13.70;99.90
23251;DHT22;11794;49.730;10.088;2023-02-15T14:44:29;13.50;99.90
23251;DHT22;11794;49.730;10.088;2023-02-15T14:47:05;13.10;99.90
23251;DHT22;11794;49.730;10.088;2023-02-15T14:49:37;13.00;99.90
23251;DHT22;11794;49.730;10.088;2023-02-15T14:52:10;12.90;99.90
23251;DHT22;11794;49.730;10.088;2023-02-15T15:04:39;12.20;99.90
23251;DHT22;11794;49.730;10.088;2023-02-15T15:07:19;11.50;99.90
23251;DHT22;11794;49.730;10.088;2023-02-15T15:12:42;10.20;99.90
23251;DHT22;11794;49.730;10.088;2023-02-15T15:15:12;10.00;99.90
23251;DHT22;11794;49.730;10.088;2023-02-15T15:25:48;10.80;99.90
23251;DHT22;11794;49.730;10.088;2023-02-15T15:34:27;10.60;99.90
23251;DHT22;11794;49.730;10.088;2023-02-15T15:45:23;8.60;99.90
23251;DHT22;11794;49.730;10.088;2023-02-15T15:50:41;7.50;99.90
23251;DHT22;11794;49.730;10.088;2023-02-15T15:53:18;7.20;99.90
23251;DHT22;11794;49.730;10.088;2023-02-15T15:55:47;6.90;99.90
23251;DHT22;11794;49.730;10.088;2023-02-15T15:58:16;6.70;99.90
23251;DHT22;11794;49.730;10.088;2023-02-15T16:00:47;6.50;99.90
23251;DHT22;11794;49.730;10.088;2023-02-15T16:03:32;5.90;99.90
23251;DHT22;11794;49.730;10.088;2023-02-15T16:05:59;5.20;99.90
23251;DHT22;11794;49.730;10.088;2023-02-15T16:08:33;5.10;99.90
23251;DHT22;11794;49.730;10.088;2023-02-15T16:11:10;4.90;99.90
23251;DHT22;11794;49.730;10.088;2023-02-15T16:13:42;4.50;99.90
23251;DHT22;11794;49.730;10.088;2023-02-15T16:16:08;4.10;99.90
23251;DHT22;11794;49.730;10.088;2023-02-15T16:18:37;3.70;99.90
23251;DHT22;11794;49.730;10.088;2023-02-15T16:21:18;3.50;99.90
23251;DHT22;11794;49.730;10.088;2023-02-15T16:29:28;2.60;99.90
23251;DHT22;11794;49.730;10.088;2023-02-15T16:34:23;2.30;99.90
23251;DHT22;11794;49.730;10.088;2023-02-15T16:36:49;2.20;99.90
23251;DHT22;11794;49.730;10.088;2023-02-15T16:39:20;2.10;99.90
23251;DHT22;11794;49.730;10.088;2023-02-15T16:41:46;2.00;99.90
23251;DHT22;11794;49.730;10.088;2023-02-15T16:44:18;2.10;99.90
23251;DHT22;11794;49.730;10.088;2023-02-15T16:46:47;2.00;99.90
23251;DHT22;11794;49.730;10.088;2023-02-15T16:49:18;2.00;99.90
23251;DHT22;11794;49.730;10.088;2023-02-15T16:51:45;2.00;99.90
23251;DHT22;11794;49.730;10.088;2023-02-15T16:54:21;2.00;99.90
23251;DHT22;11794;49.730;10.088;2023-02-15T16:56:47;2.00;99.90
23251;DHT22;11794;49.730;10.088;2023-02-15T16:59:37;1.90;99.90
23251;DHT22;11794;49.730;10.088;2023-02-15T17:02:06;1.80;99.90
23251;DHT22;11794;49.730;10.088;2023-02-15T17:04:36;1.70;99.90
23251;DHT22;11794;49.730;10.088;2023-02-15T17:07:20;1.60;99.90
23251;DHT22;11794;49.730;10.088;2023-02-15T17:09:53;1.50;99.90
23251;DHT22;11794;49.730;10.088;2023-02-15T17:12:45;1.40;99.90
23251;DHT22;11794;49.730;10.088;2023-02-15T17:18:16;1.20;99.90
23251;DHT22;11794;49.730;10.088;2023-02-15T17:20:45;1.10;99.90
23251;DHT22;11794;49.730;10.088;2023-02-15T17:23:40;1.00;99.90
23251;DHT22;11794;49.730;10.088;2023-02-15T17:26:19;1.00;99.90
23251;DHT22;11794;49.730;10.088;2023-02-15T17:29:00;1.10;99.90
23251;DHT22;11794;49.730;10.088;2023-02-15T17:31:30;1.10;99.90
23251;DHT22;11794;49.730;10.088;2023-02-15T17:33:58;1.10;99.90
23251;DHT22;11794;49.730;10.088;2023-02-15T17:36:28;1.00;99.90
23251;DHT22;11794;49.730;10.088;2023-02-15T17:41:24;1.00;99.90
23251;DHT22;11794;49.730;10.088;2023-02-15T17:43:50;0.90;99.90
23251;DHT22;11794;49.730;10.088;2023-02-15T17:46:15;0.90;99.90
23251;DHT22;11794;49.730;10.088;2023-02-15T17:48:48;0.80;99.90
23251;DHT22;11794;49.730;10.088;2023-02-15T17:51:15;0.70;99.90
23251;DHT22;11794;49.730;10.088;2023-02-15T17:53:44;0.80;99.90
23251;DHT22;11794;49.730;10.088;2023-02-15T17:56:33;0.80;99.90
23251;DHT22;11794;49.730;10.088;2023-02-15T17:58:59;0.70;99.90
23251;DHT22;11794;49.730;10.088;2023-02-15T18:01:24;0.70;99.90
23251;DHT22;11794;49.730;10.088;2023-02-15T18:04:11;0.60;99.90
23251;DHT22;11794;49.730;10.088;2023-02-15T18:06:56;0.50;99.90
23251;DHT22;11794;49.730;10.088;2023-02-15T18:09:40;0.50;99.90
23251;DHT22;11794;49.730;10.088;2023-02-15T18:12:32;0.50;99.90
23251;DHT22;11794;49.730;10.088;2023-02-15T18:14:59;0.50;99.90
23251;DHT22;11794;49.730;10.088;2023-02-15T18:17:38;0.50;99.90
23251;DHT22;11794;49.730;10.088;2023-02-15T18:22:42;0.60;99.90
23251;DHT22;11794;49.730;10.088;2023-02-15T18:25:17;0.50;99.90
23251;DHT22;11794;49.730;10.088;2023-02-15T18:27:43;0.50;99.90
23251;DHT22;11794;49.730;10.088;2023-02-15T18:30:17;0.60;99.90
23251;DHT22;11794;49.730;10.088;2023-02-15T18:32:44;0.60;99.90
23251;DHT22;11794;49.730;10.088;2023-02-15T18:35:19;0.60;99.90
23251;DHT22;11794;49.730;10.088;2023-02-15T18:37:46;0.70;99.90
23251;DHT22;11794;49.730;10.088;2023-02-15T18:40:17;0.70;99.90
23251;DHT22;11794;49.730;10.088;2023-02-15T18:42:43;0.70;99.90
23251;DHT22;11794;49.730;10.088;2023-02-15T18:45:26;0.70;99.90